Schedule Details


Flight Number: CTN531
Departure: Pulkovo (ULLI) at 18:50
Arrival: Franjo Tudman (LDZA) at 20:45
Route: TURAL?B141?RANVA?P863?RESMO?M155?VALGA?M985?BOKSU?M857?SUW?M985?EVINA?N744?TUSIN?M984?MIKOV?DCT?WGM?DCT?PETOV

Weather Information
ULLI 170000Z 10005MPS CAVOK M11/M12 Q1032 R10R/190055 NOSIG
LDZA 170000Z 07003KT 020V100 CAVOK M03/M05 Q1020 NOSIG
Schedule Frequency

Route Map